Kirksville, Missouri
Current Conditions -  °F | °C
As of 9:55 AM on Thursday 30 Oct 2014 (Local Time) from KIRK Reporting Station
Light Rain Light Rain  
Wind Chill: 36°   Ceiling: 7000
Heat Index: 44°   Visibility: 6mi
Dew Point: 40°   Wind: 21mph
Humidity: 85%   Direction: 160°SSE
Pressure: 29.99"   Gusts: 28mph
Location:  40.19°N, 92.57°W
Report Text: KIRK 301455Z AUTO 16018G24KT 6SM -RA BR SCT060 BKN070 OVC110 07/04 A2999 RMK AO2 RAB17 PRESFR SLP163 P0001 60002 T00670044 58029
Loading
Personal Weather Stations






























Interactive Weather Map
Tropical Storm Tracking
New forecast layout! Learn more

10-Day Weather Forecast

Advertisements
Track Severe Weather on mobile